createdAt,value
2018-07-21T00:04:18.206Z,54.90
2018-07-21T00:09:21.259Z,55.90
2018-07-21T00:19:27.218Z,55.90
2018-07-21T00:24:31.499Z,56.50
2018-07-21T00:29:34.522Z,57.10
2018-07-21T00:34:37.576Z,57.60
2018-07-21T00:39:40.659Z,58.10
2018-07-21T00:44:43.784Z,58.70
2018-07-21T00:49:46.854Z,59.20
2018-07-21T00:54:50.029Z,59.40
2018-07-21T00:59:53.059Z,60.30
2018-07-21T01:04:56.545Z,60.70
2018-07-21T01:09:59.573Z,61.20
2018-07-21T01:15:02.687Z,61.50
2018-07-21T01:20:06.227Z,62.30
2018-07-21T01:25:09.380Z,63.00
2018-07-21T01:30:12.708Z,64.30
2018-07-21T01:35:15.845Z,63.90
2018-07-21T01:40:18.951Z,64.80
2018-07-21T01:45:22.012Z,64.50
2018-07-21T01:50:25.032Z,64.90
2018-07-21T01:55:28.046Z,65.10
2018-07-21T02:00:31.297Z,65.30
2018-07-21T02:05:34.323Z,65.70
2018-07-21T02:10:37.346Z,66.30
2018-07-21T02:15:40.572Z,66.60
2018-07-21T02:20:43.640Z,67.50
2018-07-21T02:25:46.671Z,68.10
2018-07-21T02:30:49.693Z,68.30
2018-07-21T02:35:52.773Z,68.90
2018-07-21T02:40:55.826Z,69.60
2018-07-21T02:51:01.827Z,70.50
2018-07-21T02:56:04.881Z,70.50
2018-07-21T03:01:08.043Z,70.90
2018-07-21T03:06:11.114Z,71.20
2018-07-21T03:11:14.129Z,71.90
2018-07-21T03:16:17.431Z,71.80
2018-07-21T03:21:20.461Z,72.10
2018-07-21T03:26:23.660Z,72.60
2018-07-21T03:31:26.729Z,73.00
2018-07-21T03:36:29.757Z,73.50
2018-07-21T03:41:32.815Z,74.10
2018-07-21T03:46:36.106Z,75.10
2018-07-21T03:51:39.163Z,74.70
2018-07-21T03:56:42.251Z,75.40
2018-07-21T04:01:45.259Z,75.90
2018-07-21T04:06:48.323Z,76.40
2018-07-21T04:11:51.363Z,77.00
2018-07-21T04:16:54.407Z,77.40
2018-07-21T04:21:57.452Z,77.30
2018-07-21T04:27:00.582Z,77.50
2018-07-21T04:32:03.608Z,78.40
2018-07-21T04:37:06.650Z,78.20
2018-07-21T04:42:09.707Z,79.40
2018-07-21T04:47:12.722Z,79.70
2018-07-21T04:52:15.760Z,79.80
2018-07-21T04:57:18.798Z,80.30
2018-07-21T05:02:21.818Z,80.20
2018-07-21T05:07:24.970Z,79.80
2018-07-21T05:12:27.974Z,79.10
2018-07-21T05:17:31.074Z,78.70
2018-07-21T05:22:34.124Z,78.00
2018-07-21T05:27:37.192Z,77.60
2018-07-21T05:32:40.240Z,76.60
2018-07-21T05:37:43.250Z,76.60
2018-07-21T05:42:46.286Z,75.90
2018-07-21T05:47:49.302Z,75.20
2018-07-21T05:52:52.323Z,74.20
2018-07-21T05:57:55.400Z,73.40
2018-07-21T06:02:58.451Z,72.50
2018-07-21T06:08:01.452Z,71.50
2018-07-21T06:13:04.558Z,70.00
2018-07-21T06:18:07.681Z,69.70
2018-07-21T06:23:10.745Z,68.60
2018-07-21T06:28:13.975Z,67.80
2018-07-21T06:33:17.007Z,65.80
2018-07-21T06:38:20.038Z,65.10
2018-07-21T06:43:23.168Z,64.90
2018-07-21T06:48:26.198Z,63.50
2018-07-21T06:53:29.299Z,62.20
2018-07-21T06:58:32.336Z,62.40
2018-07-21T07:03:35.414Z,61.80
2018-07-21T07:08:38.476Z,61.60
2018-07-21T07:13:41.623Z,61.20
2018-07-21T07:18:44.678Z,60.10
2018-07-21T07:23:47.877Z,59.50
2018-07-21T07:28:51.147Z,58.80
2018-07-21T07:33:54.208Z,59.20
2018-07-21T07:38:57.248Z,58.50
2018-07-21T07:44:06.144Z,58.10
2018-07-21T07:49:09.197Z,57.60
2018-07-21T07:54:12.399Z,57.00
2018-07-21T07:59:15.444Z,57.20
2018-07-21T08:09:21.423Z,56.00
2018-07-21T08:14:24.519Z,55.80
2018-07-21T08:19:27.595Z,56.30
2018-07-21T08:24:30.626Z,55.70
2018-07-21T08:29:33.643Z,54.60
2018-07-21T08:34:37.290Z,54.20
2018-07-21T08:39:40.299Z,54.70
2018-07-21T08:44:43.569Z,54.30
2018-07-21T08:49:46.611Z,54.10
2018-07-21T08:54:49.876Z,54.40
2018-07-21T08:59:52.875Z,54.00
2018-07-21T09:04:55.981Z,54.20
2018-07-21T09:09:58.994Z,53.10
2018-07-21T09:15:02.089Z,51.90
2018-07-21T09:20:05.143Z,51.90
2018-07-21T09:25:08.194Z,51.50
2018-07-21T09:30:11.248Z,50.00
2018-07-21T09:40:17.687Z,50.80
2018-07-21T09:45:20.616Z,48.70
2018-07-21T09:50:23.665Z,47.10
2018-07-21T10:00:35.153Z,44.40
2018-07-21T10:05:38.191Z,45.40
2018-07-21T10:15:44.056Z,44.60
2018-07-21T10:20:47.088Z,44.50
2018-07-21T10:25:55.651Z,44.10
2018-07-21T10:30:58.801Z,43.70
2018-07-21T10:36:01.913Z,44.10
2018-07-21T10:41:05.000Z,44.30
2018-07-21T10:46:08.033Z,43.60
2018-07-21T10:51:11.183Z,43.80
2018-07-21T10:56:14.202Z,43.70
2018-07-21T11:01:17.233Z,43.60
2018-07-21T11:06:20.241Z,42.90
2018-07-21T11:11:23.345Z,43.00
2018-07-21T11:21:29.531Z,43.60
2018-07-21T11:26:32.580Z,43.00
2018-07-21T11:36:38.471Z,44.00
2018-07-21T11:41:41.548Z,44.40
2018-07-21T11:46:44.651Z,44.60
2018-07-21T11:51:47.675Z,42.90
2018-07-21T11:56:54.363Z,42.80
2018-07-21T12:01:58.324Z,40.20
2018-07-21T12:07:01.467Z,42.10
2018-07-21T12:12:09.743Z,41.10
2018-07-21T12:17:12.824Z,41.40
2018-07-21T12:22:15.844Z,40.60
2018-07-21T12:27:19.054Z,41.50
2018-07-21T12:32:22.075Z,40.80
2018-07-21T12:37:25.128Z,42.00
2018-07-21T12:42:28.252Z,41.80
2018-07-21T12:47:31.266Z,40.80
2018-07-21T12:52:34.309Z,41.30
2018-07-21T12:57:37.371Z,40.30
2018-07-21T13:02:40.644Z,39.50
2018-07-21T13:07:43.687Z,40.10
2018-07-21T13:12:46.726Z,38.60
2018-07-21T13:17:49.779Z,38.90
2018-07-21T13:22:52.815Z,38.80
2018-07-21T13:27:55.807Z,39.80
2018-07-21T13:32:58.838Z,40.70
2018-07-21T13:38:01.865Z,39.40
2018-07-21T13:43:05.113Z,39.80
2018-07-21T13:48:08.119Z,38.70
2018-07-21T13:53:11.155Z,40.20
2018-07-21T13:58:14.191Z,40.60
2018-07-21T14:03:17.222Z,41.70
2018-07-21T14:08:20.339Z,41.50
2018-07-21T14:13:23.385Z,39.70
2018-07-21T14:18:26.446Z,39.80
2018-07-21T14:23:29.571Z,42.10
2018-07-21T14:28:32.709Z,41.10
2018-07-21T14:33:35.773Z,40.00
2018-07-21T14:38:38.807Z,40.50
2018-07-21T14:43:41.909Z,41.70
2018-07-21T14:48:45.029Z,41.30
2018-07-21T14:53:48.068Z,40.40
2018-07-21T14:58:51.100Z,39.70
2018-07-21T15:03:54.140Z,39.80
2018-07-21T15:08:57.202Z,40.30
2018-07-21T15:14:00.361Z,39.90
2018-07-21T15:19:03.399Z,40.20
2018-07-21T15:24:06.420Z,40.10
2018-07-21T15:29:09.437Z,38.70
2018-07-21T15:34:12.546Z,38.90
2018-07-21T15:39:15.586Z,38.00
2018-07-21T15:44:18.603Z,37.90
2018-07-21T15:49:21.611Z,37.90
2018-07-21T15:54:24.663Z,39.00
2018-07-21T15:59:27.727Z,39.20
2018-07-21T16:04:30.877Z,38.40
2018-07-21T16:09:34.070Z,38.40
2018-07-21T16:14:37.127Z,39.80
2018-07-21T16:19:40.169Z,38.30
2018-07-21T16:24:43.401Z,39.30
2018-07-21T16:29:46.477Z,40.00
2018-07-21T16:34:49.802Z,39.80
2018-07-21T16:39:52.880Z,40.60
2018-07-21T16:44:56.055Z,40.30
2018-07-21T16:49:59.128Z,40.10
2018-07-21T16:55:03.249Z,40.50
2018-07-21T17:00:06.333Z,40.50
2018-07-21T17:05:09.443Z,41.20
2018-07-21T17:10:12.540Z,41.50
2018-07-21T17:15:15.611Z,41.80
2018-07-21T17:20:18.836Z,42.60
2018-07-21T17:25:22.140Z,43.30
2018-07-21T17:30:25.533Z,43.70
2018-07-21T17:35:28.606Z,43.80
2018-07-21T17:40:31.645Z,43.70
2018-07-21T17:45:34.691Z,43.70
2018-07-21T17:50:37.742Z,43.20
2018-07-21T17:55:40.991Z,43.30
2018-07-21T18:00:44.003Z,43.30
2018-07-21T18:05:47.056Z,43.30
2018-07-21T18:10:50.102Z,43.30
2018-07-21T18:15:53.139Z,43.80
2018-07-21T18:20:57.391Z,43.80
2018-07-21T18:26:00.745Z,44.00
2018-07-21T18:31:03.862Z,44.50
2018-07-21T18:36:07.279Z,45.00
2018-07-21T18:41:10.991Z,45.90
2018-07-21T18:46:14.368Z,46.20
2018-07-21T18:56:20.735Z,47.30
2018-07-21T19:01:24.181Z,47.40
2018-07-21T19:06:27.573Z,47.70
2018-07-21T19:11:31.516Z,48.10
2018-07-21T19:21:45.264Z,48.80
2018-07-21T19:26:54.186Z,49.30
2018-07-21T19:32:02.895Z,49.30
2018-07-21T19:42:13.460Z,50.20
2018-07-21T19:47:16.563Z,50.50
2018-07-21T19:52:19.934Z,50.60
2018-07-21T19:57:23.242Z,50.50
2018-07-21T20:02:26.283Z,51.20
2018-07-21T20:07:29.380Z,51.40
2018-07-21T20:12:32.507Z,51.40
2018-07-21T20:17:35.598Z,51.60
2018-07-21T20:22:38.653Z,52.00
2018-07-21T20:27:42.118Z,52.00
2018-07-21T20:32:45.166Z,52.00
2018-07-21T20:42:51.487Z,52.60
2018-07-21T20:47:54.511Z,52.70
2018-07-21T20:52:57.544Z,52.80
2018-07-21T20:58:02.187Z,53.60
2018-07-21T21:03:05.334Z,53.30
2018-07-21T21:08:08.387Z,53.20
2018-07-21T21:13:11.395Z,53.10
2018-07-21T21:18:14.508Z,53.50
2018-07-21T21:23:17.864Z,53.60
2018-07-21T21:28:20.946Z,54.60
2018-07-21T21:33:24.008Z,54.60
2018-07-21T21:38:27.041Z,54.70
2018-07-21T21:43:30.130Z,54.10
2018-07-21T21:48:33.141Z,54.00
2018-07-21T21:53:36.232Z,53.40
2018-07-21T21:58:39.274Z,53.80
2018-07-21T22:03:43.471Z,53.70
2018-07-21T22:08:46.636Z,53.30
2018-07-21T22:13:49.634Z,53.40
2018-07-21T22:18:52.721Z,53.10
2018-07-21T22:23:55.713Z,53.20
2018-07-21T22:28:58.795Z,53.00
2018-07-21T22:34:01.900Z,52.90
2018-07-21T22:39:08.603Z,53.00
2018-07-21T22:44:11.739Z,53.00
2018-07-21T22:49:14.836Z,53.10
2018-07-21T22:54:17.900Z,53.00
2018-07-21T22:59:21.068Z,52.40
2018-07-21T23:04:24.195Z,52.90
2018-07-21T23:09:27.250Z,53.10
2018-07-21T23:14:30.335Z,53.40
2018-07-21T23:19:33.420Z,53.40
2018-07-21T23:24:36.755Z,53.30
2018-07-21T23:29:39.795Z,53.00
2018-07-21T23:34:43.541Z,53.20
2018-07-21T23:39:46.573Z,53.40
2018-07-21T23:44:49.655Z,53.40
2018-07-21T23:49:52.686Z,53.40
2018-07-21T23:54:55.787Z,53.60
2018-07-21T23:59:58.793Z,54.20
